createdAt,value
2017-11-27T00:00:39.614Z,45.47
2017-11-27T00:02:42.989Z,45.47
2017-11-27T00:04:46.327Z,45.47
2017-11-27T00:06:49.628Z,45.47
2017-11-27T00:08:52.994Z,45.46
2017-11-27T00:10:56.322Z,45.46
2017-11-27T00:12:59.776Z,45.46
2017-11-27T00:15:03.074Z,45.46
2017-11-27T00:17:06.394Z,45.46
2017-11-27T00:19:09.789Z,45.46
2017-11-27T00:21:13.166Z,45.44
2017-11-27T00:23:16.629Z,45.43
2017-11-27T00:25:19.927Z,45.43
2017-11-27T00:27:23.253Z,45.43
2017-11-27T00:29:26.576Z,45.42
2017-11-27T00:31:29.949Z,45.42
2017-11-27T00:33:33.270Z,45.43
2017-11-27T00:35:36.676Z,45.41
2017-11-27T00:37:39.986Z,45.41
2017-11-27T00:39:43.358Z,45.40
2017-11-27T00:41:46.732Z,45.40
2017-11-27T00:43:50.043Z,45.40
2017-11-27T00:45:53.456Z,45.39
2017-11-27T00:47:56.857Z,45.39
2017-11-27T00:50:00.207Z,45.39
2017-11-27T00:52:03.604Z,45.38
2017-11-27T00:54:06.889Z,45.38
2017-11-27T00:56:22.272Z,45.37
2017-11-27T00:58:25.660Z,45.38
2017-11-27T01:00:28.948Z,45.39
2017-11-27T01:02:32.510Z,45.39
2017-11-27T01:04:35.911Z,45.39
2017-11-27T01:06:39.209Z,45.37
2017-11-27T01:08:42.594Z,45.36
2017-11-27T01:10:45.936Z,45.37
2017-11-27T01:12:49.247Z,45.38
2017-11-27T01:14:52.622Z,45.37
2017-11-27T01:16:55.949Z,45.36
2017-11-27T01:18:59.361Z,45.36
2017-11-27T01:21:02.655Z,45.36
2017-11-27T01:23:05.981Z,45.34
2017-11-27T01:25:09.340Z,45.34
2017-11-27T01:27:12.626Z,45.33
2017-11-27T01:29:15.957Z,45.35
2017-11-27T01:31:19.413Z,45.33
2017-11-27T01:33:22.710Z,45.33
2017-11-27T01:35:26.022Z,45.32
2017-11-27T01:37:29.461Z,45.33
2017-11-27T01:39:32.825Z,45.33
2017-11-27T01:41:36.150Z,45.31
2017-11-27T01:43:39.458Z,45.31
2017-11-27T01:45:42.804Z,45.31
2017-11-27T01:47:46.181Z,45.32
2017-11-27T01:49:49.640Z,45.32
2017-11-27T01:51:52.974Z,45.31
2017-11-27T01:53:56.281Z,45.31
2017-11-27T01:55:59.581Z,45.30
2017-11-27T01:58:02.938Z,45.28
2017-11-27T02:00:06.301Z,45.28
2017-11-27T02:02:09.604Z,45.29
2017-11-27T02:04:19.474Z,45.29
2017-11-27T02:06:22.819Z,45.29
2017-11-27T02:08:26.200Z,45.28
2017-11-27T02:10:29.497Z,45.27
2017-11-27T02:12:32.827Z,45.27
2017-11-27T02:14:36.171Z,45.27
2017-11-27T02:16:39.542Z,45.27
2017-11-27T02:18:42.891Z,45.26
2017-11-27T02:20:46.309Z,45.26
2017-11-27T02:22:49.944Z,45.26
2017-11-27T02:24:53.235Z,45.25
2017-11-27T02:26:56.626Z,45.24
2017-11-27T02:29:00.020Z,45.23
2017-11-27T02:31:03.382Z,45.24
2017-11-27T02:33:06.780Z,45.23
2017-11-27T02:35:10.146Z,45.22
2017-11-27T02:37:13.478Z,45.22
2017-11-27T02:39:16.833Z,45.21
2017-11-27T02:41:20.144Z,45.20
2017-11-27T02:43:23.585Z,45.20
2017-11-27T02:45:26.850Z,45.20
2017-11-27T02:47:30.160Z,45.19
2017-11-27T02:49:33.546Z,45.19
2017-11-27T02:51:36.929Z,45.19
2017-11-27T02:53:40.218Z,45.18
2017-11-27T02:55:43.547Z,45.17
2017-11-27T02:57:46.988Z,45.17
2017-11-27T02:59:50.357Z,45.17
2017-11-27T03:01:53.773Z,45.15
2017-11-27T03:03:57.136Z,45.16
2017-11-27T03:06:00.494Z,45.15
2017-11-27T03:08:03.883Z,45.15
2017-11-27T03:10:07.184Z,45.14
2017-11-27T03:12:10.535Z,45.14
2017-11-27T03:14:13.881Z,45.14
2017-11-27T03:16:17.308Z,45.14
2017-11-27T03:18:20.601Z,45.13
2017-11-27T03:20:24.030Z,45.12
2017-11-27T03:22:27.479Z,45.13
2017-11-27T03:24:30.782Z,45.12
2017-11-27T03:26:34.118Z,45.11
2017-11-27T03:28:37.404Z,45.11
2017-11-27T03:30:40.850Z,45.10
2017-11-27T03:32:47.974Z,45.10
2017-11-27T03:34:51.310Z,45.08
2017-11-27T03:36:54.680Z,45.10
2017-11-27T03:38:58.035Z,45.10
2017-11-27T03:41:01.335Z,45.11
2017-11-27T03:43:04.893Z,45.10
2017-11-27T03:45:08.274Z,45.07
2017-11-27T03:47:11.564Z,45.07
2017-11-27T03:49:15.008Z,45.07
2017-11-27T03:51:18.326Z,45.06
2017-11-27T03:53:21.636Z,45.06
2017-11-27T03:55:24.943Z,45.06
2017-11-27T03:57:28.256Z,45.06
2017-11-27T03:59:31.662Z,45.05
2017-11-27T04:01:35.107Z,45.06
2017-11-27T04:03:38.452Z,45.04
2017-11-27T04:05:41.786Z,45.05
2017-11-27T04:07:45.219Z,45.04
2017-11-27T04:09:48.562Z,45.04
2017-11-27T04:11:51.868Z,45.04
2017-11-27T04:13:55.164Z,45.03
2017-11-27T04:15:58.487Z,45.04
2017-11-27T04:18:01.825Z,45.03
2017-11-27T04:20:05.174Z,45.03
2017-11-27T04:22:08.577Z,45.02
2017-11-27T04:24:11.861Z,45.03
2017-11-27T04:26:15.162Z,45.02
2017-11-27T04:28:18.479Z,45.03
2017-11-27T04:30:21.871Z,45.02
2017-11-27T04:32:25.159Z,45.01
2017-11-27T04:34:28.597Z,45.02
2017-11-27T04:36:31.945Z,45.01
2017-11-27T04:38:35.277Z,45.00
2017-11-27T04:40:38.727Z,45.00
2017-11-27T04:42:42.016Z,45.01
2017-11-27T04:44:45.341Z,45.00
2017-11-27T04:46:48.799Z,45.00
2017-11-27T04:48:52.248Z,45.00
2017-11-27T04:50:55.546Z,44.98
2017-11-27T04:52:58.872Z,44.98
2017-11-27T04:55:02.264Z,44.98
2017-11-27T04:57:05.610Z,44.98
2017-11-27T04:59:09.050Z,44.97
2017-11-27T05:01:12.442Z,44.97
2017-11-27T05:03:15.724Z,44.97
2017-11-27T05:05:19.122Z,44.96
2017-11-27T05:07:22.394Z,44.95
2017-11-27T05:09:25.802Z,44.94
2017-11-27T05:11:29.132Z,44.94
2017-11-27T05:13:32.434Z,44.94
2017-11-27T05:15:35.739Z,44.94
2017-11-27T05:17:39.063Z,44.94
2017-11-27T05:19:42.399Z,44.94
2017-11-27T05:21:45.694Z,44.93
2017-11-27T05:23:49.134Z,44.92
2017-11-27T05:25:52.474Z,44.92
2017-11-27T05:27:55.821Z,44.91
2017-11-27T05:29:59.177Z,44.90
2017-11-27T05:32:02.478Z,44.90
2017-11-27T05:34:05.781Z,44.91
2017-11-27T05:36:09.197Z,44.91
2017-11-27T05:38:12.490Z,44.90
2017-11-27T05:40:15.861Z,44.89
2017-11-27T05:42:19.214Z,44.89
2017-11-27T05:44:22.848Z,44.87
2017-11-27T05:46:26.238Z,44.87
2017-11-27T05:48:29.738Z,44.86
2017-11-27T05:50:33.030Z,44.85
2017-11-27T05:52:36.349Z,44.83
2017-11-27T05:54:39.802Z,44.83
2017-11-27T05:56:43.099Z,44.83
2017-11-27T05:58:46.465Z,44.83
2017-11-27T06:00:49.773Z,44.84
2017-11-27T06:02:53.076Z,44.82
2017-11-27T06:04:56.379Z,44.83
2017-11-27T06:06:59.785Z,44.83
2017-11-27T06:09:03.245Z,44.83
2017-11-27T06:11:06.526Z,44.83
2017-11-27T06:13:09.905Z,44.82
2017-11-27T06:15:13.316Z,44.82
2017-11-27T06:17:16.606Z,44.82
2017-11-27T06:19:19.935Z,44.81
2017-11-27T06:21:23.354Z,44.80
2017-11-27T06:23:26.645Z,44.81
2017-11-27T06:25:30.070Z,44.80
2017-11-27T06:27:33.382Z,44.80
2017-11-27T06:29:36.748Z,44.79
2017-11-27T06:31:40.078Z,44.80
2017-11-27T06:33:43.488Z,44.79
2017-11-27T06:35:46.826Z,44.79
2017-11-27T06:37:50.266Z,44.80
2017-11-27T06:39:53.706Z,44.79
2017-11-27T06:41:57.002Z,44.79
2017-11-27T06:44:00.493Z,44.79
2017-11-27T06:46:03.813Z,44.79
2017-11-27T06:48:07.175Z,44.79
2017-11-27T06:50:10.513Z,44.78
2017-11-27T06:52:13.869Z,44.78
2017-11-27T06:54:18.024Z,44.78
2017-11-27T06:56:21.414Z,44.77
2017-11-27T06:58:24.746Z,44.78
2017-11-27T07:00:28.041Z,44.77
2017-11-27T07:02:31.529Z,44.77
2017-11-27T07:04:34.821Z,44.77
2017-11-27T07:06:38.157Z,44.76
2017-11-27T07:08:41.500Z,44.76
2017-11-27T07:10:44.897Z,44.75
2017-11-27T07:12:48.229Z,44.74
2017-11-27T07:14:51.560Z,44.73
2017-11-27T07:16:54.937Z,44.73
2017-11-27T07:18:58.230Z,44.74
2017-11-27T07:21:01.885Z,44.73
2017-11-27T07:23:05.262Z,44.87
2017-11-27T07:25:08.579Z,44.78
2017-11-27T07:27:12.129Z,44.75
2017-11-27T07:29:15.471Z,44.66
2017-11-27T07:31:18.910Z,44.53
2017-11-27T07:33:22.304Z,44.33
2017-11-27T07:35:26.526Z,44.10
2017-11-27T07:37:35.622Z,43.95
2017-11-27T07:39:44.645Z,43.74
2017-11-27T07:41:47.933Z,42.44
2017-11-27T07:43:51.272Z,42.11
2017-11-27T07:45:55.722Z,42.12
2017-11-27T07:47:59.090Z,42.14
2017-11-27T07:50:03.297Z,42.00
2017-11-27T07:52:06.665Z,41.84
2017-11-27T07:54:09.981Z,41.76
2017-11-27T07:56:13.282Z,41.66
2017-11-27T07:58:16.909Z,41.62
2017-11-27T08:00:20.208Z,41.64
2017-11-27T08:02:23.501Z,41.56
2017-11-27T08:04:26.886Z,41.64
2017-11-27T08:06:30.266Z,41.62
2017-11-27T08:08:33.639Z,41.63
2017-11-27T08:10:36.962Z,41.58
2017-11-27T08:12:40.261Z,41.66
2017-11-27T08:14:43.595Z,41.63
2017-11-27T08:16:46.958Z,41.59
2017-11-27T08:18:50.274Z,41.65
2017-11-27T08:20:53.626Z,41.64
2017-11-27T08:22:57.013Z,41.58
2017-11-27T08:25:00.420Z,41.63
2017-11-27T08:27:03.722Z,41.64
2017-11-27T08:29:07.073Z,41.63
2017-11-27T08:31:11.310Z,41.65
2017-11-27T08:33:14.645Z,41.61
2017-11-27T08:35:17.982Z,41.69
2017-11-27T08:37:22.098Z,41.75
2017-11-27T08:39:25.410Z,41.73
2017-11-27T08:41:28.984Z,41.77
2017-11-27T08:43:32.309Z,41.82
2017-11-27T08:45:35.872Z,41.80
2017-11-27T08:47:39.188Z,41.78
2017-11-27T08:49:42.485Z,41.76
2017-11-27T08:51:45.785Z,41.78
2017-11-27T08:53:49.179Z,41.78
2017-11-27T08:55:52.617Z,41.98
2017-11-27T08:57:55.921Z,41.84
2017-11-27T08:59:59.296Z,41.85
2017-11-27T09:02:02.625Z,41.93
2017-11-27T09:04:05.953Z,42.02
2017-11-27T09:06:09.337Z,42.16
2017-11-27T09:08:12.740Z,42.12
2017-11-27T09:10:16.142Z,42.14
2017-11-27T09:12:19.474Z,42.13
2017-11-27T09:14:22.842Z,42.19
2017-11-27T09:16:26.222Z,42.14
2017-11-27T09:18:29.549Z,42.40
2017-11-27T09:20:32.842Z,42.36
2017-11-27T09:22:36.146Z,42.47
2017-11-27T09:24:39.493Z,42.48
2017-11-27T09:26:42.783Z,42.59
2017-11-27T09:28:46.461Z,42.65
2017-11-27T09:30:49.907Z,42.63
2017-11-27T09:32:53.282Z,42.68
2017-11-27T09:34:56.753Z,42.70
2017-11-27T09:37:00.116Z,42.67
2017-11-27T09:39:04.293Z,42.68
2017-11-27T09:41:07.643Z,42.69
2017-11-27T09:43:11.215Z,42.76
2017-11-27T09:45:14.523Z,42.76
2017-11-27T09:47:17.901Z,42.82
2017-11-27T09:49:21.246Z,42.85
2017-11-27T09:51:24.553Z,42.89
2017-11-27T09:53:27.904Z,42.88
2017-11-27T09:55:31.293Z,42.86
2017-11-27T09:57:34.614Z,42.87
2017-11-27T09:59:37.908Z,42.89
2017-11-27T10:01:41.229Z,42.91
2017-11-27T10:03:44.513Z,43.00
2017-11-27T10:05:47.842Z,42.94
2017-11-27T10:07:51.206Z,43.01
2017-11-27T10:09:54.647Z,43.04
2017-11-27T10:11:58.011Z,43.02
2017-11-27T10:14:01.320Z,43.01
2017-11-27T10:16:05.102Z,43.12
2017-11-27T10:18:08.805Z,43.11
2017-11-27T10:20:13.353Z,43.12
2017-11-27T10:22:17.653Z,43.13
2017-11-27T10:24:21.024Z,43.08
2017-11-27T10:26:24.414Z,43.09
2017-11-27T10:28:28.701Z,43.08
2017-11-27T10:30:32.002Z,43.11
2017-11-27T10:32:35.343Z,43.10
2017-11-27T10:34:38.666Z,43.15
2017-11-27T10:36:41.985Z,43.12
2017-11-27T10:38:45.318Z,43.13
2017-11-27T10:40:48.636Z,43.14
2017-11-27T10:42:52.041Z,43.17
2017-11-27T10:44:55.417Z,43.13
2017-11-27T10:46:58.726Z,43.19
2017-11-27T10:49:02.065Z,43.18
2017-11-27T10:51:05.377Z,43.27
2017-11-27T10:53:08.694Z,43.28
2017-11-27T10:55:12.104Z,43.29
2017-11-27T10:57:15.451Z,43.42
2017-11-27T10:59:18.796Z,43.33
2017-11-27T11:01:22.119Z,43.28
2017-11-27T11:03:25.476Z,43.28
2017-11-27T11:05:28.859Z,43.27
2017-11-27T11:07:32.155Z,43.24
2017-11-27T11:09:35.595Z,43.21
2017-11-27T11:11:38.887Z,43.23
2017-11-27T11:13:42.223Z,43.22
2017-11-27T11:15:45.609Z,43.21
2017-11-27T11:17:48.952Z,43.27
2017-11-27T11:19:52.258Z,43.31
2017-11-27T11:21:55.691Z,43.31
2017-11-27T11:23:59.108Z,43.30
2017-11-27T11:26:02.546Z,43.25
2017-11-27T11:28:05.963Z,43.24
2017-11-27T11:30:09.239Z,43.23
2017-11-27T11:32:12.688Z,43.23
2017-11-27T11:34:16.105Z,43.21
2017-11-27T11:36:19.415Z,43.24
2017-11-27T11:38:22.798Z,43.25
2017-11-27T11:40:26.177Z,43.22
2017-11-27T11:42:29.522Z,43.26
2017-11-27T11:44:32.868Z,43.27
2017-11-27T11:46:36.256Z,43.19
2017-11-27T11:48:39.622Z,43.21
2017-11-27T11:50:42.932Z,43.23
2017-11-27T11:52:46.302Z,43.24
2017-11-27T11:54:49.700Z,43.26
2017-11-27T11:56:53.004Z,43.32
2017-11-27T11:58:56.363Z,43.33
2017-11-27T12:00:59.681Z,43.33
2017-11-27T12:03:03.046Z,43.37
2017-11-27T12:05:06.374Z,43.47
2017-11-27T12:07:09.796Z,43.49
2017-11-27T12:09:13.129Z,43.48
2017-11-27T12:11:16.482Z,43.52
2017-11-27T12:13:19.871Z,43.55
2017-11-27T12:15:23.161Z,43.59
2017-11-27T12:17:26.637Z,43.59
2017-11-27T12:19:29.936Z,43.59
2017-11-27T12:21:33.281Z,43.58
2017-11-27T12:23:36.663Z,43.59
2017-11-27T12:25:40.013Z,43.58
2017-11-27T12:27:43.302Z,43.58
2017-11-27T12:29:46.655Z,43.59
2017-11-27T12:31:49.987Z,43.59
2017-11-27T12:33:54.706Z,43.62
2017-11-27T12:35:58.058Z,43.62
2017-11-27T12:38:01.419Z,43.61
2017-11-27T12:40:04.735Z,43.61
2017-11-27T12:42:08.173Z,43.61
2017-11-27T12:44:11.454Z,43.62
2017-11-27T12:46:14.766Z,43.65
2017-11-27T12:48:18.118Z,43.67
2017-11-27T12:50:21.639Z,43.68
2017-11-27T12:52:24.934Z,43.73
2017-11-27T12:54:28.271Z,43.91
2017-11-27T12:56:31.679Z,44.19
2017-11-27T12:58:35.202Z,44.66
2017-11-27T13:00:38.553Z,44.90
2017-11-27T13:02:41.825Z,45.13
2017-11-27T13:04:45.147Z,45.42
2017-11-27T13:06:48.498Z,45.58
2017-11-27T13:08:51.853Z,45.68
2017-11-27T13:10:55.156Z,45.80
2017-11-27T13:12:58.573Z,45.86
2017-11-27T13:15:01.874Z,45.88
2017-11-27T13:17:05.322Z,45.84
2017-11-27T13:19:08.680Z,45.84
2017-11-27T13:21:12.035Z,45.90
2017-11-27T13:23:15.392Z,45.88
2017-11-27T13:25:18.743Z,45.84
2017-11-27T13:27:22.136Z,45.83
2017-11-27T13:29:25.492Z,45.89
2017-11-27T13:31:29.062Z,45.86
2017-11-27T13:33:32.367Z,45.87
2017-11-27T13:35:35.796Z,45.76
2017-11-27T13:37:39.201Z,45.73
2017-11-27T13:39:42.580Z,45.73
2017-11-27T13:41:46.019Z,45.70
2017-11-27T13:43:49.421Z,45.65
2017-11-27T13:45:53.553Z,45.60
2017-11-27T13:47:56.954Z,45.61
2017-11-27T13:50:00.513Z,45.59
2017-11-27T13:52:03.889Z,45.57
2017-11-27T13:54:08.335Z,45.55
2017-11-27T13:56:11.947Z,45.54
2017-11-27T13:58:15.641Z,45.50
2017-11-27T14:00:19.236Z,45.46
2017-11-27T14:02:22.551Z,45.47
2017-11-27T14:04:25.885Z,45.43
2017-11-27T14:06:29.177Z,45.41
2017-11-27T14:08:32.483Z,45.41
2017-11-27T14:10:35.769Z,45.35
2017-11-27T14:12:39.112Z,45.33
2017-11-27T14:14:42.518Z,45.30
2017-11-27T14:16:45.935Z,45.28
2017-11-27T14:18:50.198Z,45.26
2017-11-27T14:20:53.638Z,45.27
2017-11-27T14:22:56.950Z,45.27
2017-11-27T14:25:00.289Z,45.26
2017-11-27T14:27:03.633Z,45.22
2017-11-27T14:29:06.944Z,45.21
2017-11-27T14:31:10.299Z,45.20
2017-11-27T14:33:13.681Z,45.19
2017-11-27T14:35:17.056Z,45.19
2017-11-27T14:37:20.363Z,45.17
2017-11-27T14:39:23.699Z,45.17
2017-11-27T14:41:27.156Z,45.17
2017-11-27T14:43:30.439Z,45.17
2017-11-27T14:45:33.776Z,45.15
2017-11-27T14:47:37.196Z,45.15
2017-11-27T14:49:40.486Z,45.15
2017-11-27T14:51:44.090Z,45.12
2017-11-27T14:53:47.381Z,45.12
2017-11-27T14:55:50.721Z,45.10
2017-11-27T14:57:54.045Z,45.08
2017-11-27T14:59:57.384Z,45.09
2017-11-27T15:02:00.686Z,45.04
2017-11-27T15:04:04.186Z,45.07
2017-11-27T15:06:07.479Z,45.04
2017-11-27T15:08:10.782Z,45.04
2017-11-27T15:10:14.096Z,45.07
2017-11-27T15:12:17.424Z,45.01
2017-11-27T15:14:20.802Z,45.03
2017-11-27T15:16:24.120Z,45.02
2017-11-27T15:18:27.457Z,45.00
2017-11-27T15:20:30.802Z,44.99
2017-11-27T15:22:34.154Z,44.99
2017-11-27T15:24:37.477Z,44.98
2017-11-27T15:26:40.778Z,44.96
2017-11-27T15:28:44.782Z,44.94
2017-11-27T15:30:48.344Z,44.95
2017-11-27T15:32:51.769Z,44.96
2017-11-27T15:34:55.126Z,44.96
2017-11-27T15:36:58.442Z,44.95
2017-11-27T15:39:01.813Z,44.96
2017-11-27T15:41:05.269Z,44.94
2017-11-27T15:43:09.213Z,44.95
2017-11-27T15:45:12.707Z,44.94
2017-11-27T15:47:16.036Z,44.94
2017-11-27T15:49:19.489Z,44.94
2017-11-27T15:51:22.814Z,44.93
2017-11-27T15:53:26.254Z,44.92
2017-11-27T15:55:29.577Z,44.93
2017-11-27T15:57:32.910Z,44.92
2017-11-27T15:59:36.306Z,44.95
2017-11-27T16:01:39.598Z,44.92
2017-11-27T16:03:42.981Z,44.91
2017-11-27T16:05:46.331Z,44.90
2017-11-27T16:07:49.707Z,44.92
2017-11-27T16:09:53.007Z,44.90
2017-11-27T16:11:56.332Z,44.90
2017-11-27T16:13:59.630Z,44.89
2017-11-27T16:16:02.960Z,44.91
2017-11-27T16:18:06.372Z,44.88
2017-11-27T16:20:09.698Z,44.89
2017-11-27T16:22:13.150Z,44.87
2017-11-27T16:24:16.482Z,44.86
2017-11-27T16:26:19.993Z,44.85
2017-11-27T16:28:23.312Z,44.84
2017-11-27T16:30:26.654Z,44.84
2017-11-27T16:32:30.039Z,44.86
2017-11-27T16:34:33.394Z,44.83
2017-11-27T16:36:36.809Z,44.82
2017-11-27T16:38:40.161Z,44.81
2017-11-27T16:40:43.517Z,44.80
2017-11-27T16:42:46.871Z,44.77
2017-11-27T16:44:51.254Z,44.77
2017-11-27T16:46:54.554Z,44.76
2017-11-27T16:48:57.916Z,44.75
2017-11-27T16:51:01.241Z,44.75
2017-11-27T16:53:04.573Z,44.74
2017-11-27T16:55:08.091Z,44.74
2017-11-27T16:57:11.386Z,44.73
2017-11-27T16:59:14.706Z,44.74
2017-11-27T17:01:18.056Z,44.73
2017-11-27T17:03:21.426Z,44.76
2017-11-27T17:05:24.797Z,44.74
2017-11-27T17:07:28.154Z,44.76
2017-11-27T17:09:31.467Z,44.75
2017-11-27T17:11:34.762Z,44.76
2017-11-27T17:13:38.113Z,44.77
2017-11-27T17:15:42.503Z,44.75
2017-11-27T17:17:45.865Z,44.75
2017-11-27T17:19:49.289Z,44.73
2017-11-27T17:21:52.669Z,44.74
2017-11-27T17:23:56.128Z,44.70
2017-11-27T17:25:59.446Z,44.72
2017-11-27T17:28:02.797Z,44.72
2017-11-27T17:30:06.122Z,44.74
2017-11-27T17:32:09.454Z,44.75
2017-11-27T17:34:12.747Z,44.77
2017-11-27T17:36:16.062Z,44.77
2017-11-27T17:38:19.403Z,44.79
2017-11-27T17:40:22.728Z,44.81
2017-11-27T17:42:26.075Z,44.83
2017-11-27T17:44:29.406Z,44.84
2017-11-27T17:46:32.734Z,44.87
2017-11-27T17:48:36.078Z,44.89
2017-11-27T17:50:39.496Z,44.90
2017-11-27T17:52:42.796Z,44.92
2017-11-27T17:54:46.149Z,44.93
2017-11-27T17:56:49.625Z,44.95
2017-11-27T17:58:52.950Z,44.97
2017-11-27T18:00:56.351Z,44.99
2017-11-27T18:02:59.687Z,45.00
2017-11-27T18:05:02.979Z,45.02
2017-11-27T18:07:06.273Z,45.03
2017-11-27T18:09:09.660Z,45.05
2017-11-27T18:11:13.006Z,45.08
2017-11-27T18:13:16.302Z,45.08
2017-11-27T18:15:19.741Z,45.11
2017-11-27T18:17:23.066Z,45.11
2017-11-27T18:19:26.438Z,45.14
2017-11-27T18:21:29.775Z,45.20
2017-11-27T18:23:33.103Z,45.21
2017-11-27T18:25:36.545Z,45.25
2017-11-27T18:27:39.938Z,45.28
2017-11-27T18:29:43.261Z,45.30
2017-11-27T18:31:46.667Z,45.33
2017-11-27T18:33:50.047Z,45.38
2017-11-27T18:35:53.502Z,45.39
2017-11-27T18:37:56.894Z,45.41
2017-11-27T18:40:00.200Z,45.44
2017-11-27T18:42:03.550Z,45.46
2017-11-27T18:44:06.950Z,45.47
2017-11-27T18:46:10.362Z,45.49
2017-11-27T18:48:13.695Z,45.52
2017-11-27T18:50:17.045Z,45.52
2017-11-27T18:52:20.395Z,45.55
2017-11-27T18:54:23.713Z,45.56
2017-11-27T18:56:27.117Z,45.59
2017-11-27T18:58:30.550Z,45.61
2017-11-27T19:00:34.107Z,45.63
2017-11-27T19:02:37.426Z,45.66
2017-11-27T19:04:40.891Z,45.67
2017-11-27T19:06:44.210Z,45.67
2017-11-27T19:08:47.716Z,45.69
2017-11-27T19:10:51.105Z,45.70
2017-11-27T19:12:54.393Z,45.72
2017-11-27T19:14:57.845Z,45.73
2017-11-27T19:17:01.281Z,45.74
2017-11-27T19:19:04.691Z,45.75
2017-11-27T19:21:08.015Z,45.77
2017-11-27T19:23:11.412Z,45.77
2017-11-27T19:25:14.694Z,45.80
2017-11-27T19:27:17.998Z,45.81
2017-11-27T19:29:21.367Z,45.83
2017-11-27T19:31:24.681Z,45.83
2017-11-27T19:33:28.026Z,45.85
2017-11-27T19:35:31.397Z,45.85
2017-11-27T19:37:34.691Z,45.85
2017-11-27T19:39:38.134Z,45.86
2017-11-27T19:41:41.462Z,45.85
2017-11-27T19:43:44.768Z,45.85
2017-11-27T19:45:48.085Z,45.85
2017-11-27T19:47:51.446Z,45.86
2017-11-27T19:49:54.840Z,45.87
2017-11-27T19:51:58.168Z,45.88
2017-11-27T19:54:01.545Z,45.87
2017-11-27T19:56:04.845Z,45.87
2017-11-27T19:58:08.198Z,45.88
2017-11-27T20:00:11.687Z,45.89
2017-11-27T20:02:15.011Z,45.90
2017-11-27T20:04:18.406Z,45.91
2017-11-27T20:06:21.741Z,45.92
2017-11-27T20:08:25.069Z,45.92
2017-11-27T20:10:28.397Z,45.92
2017-11-27T20:12:31.836Z,45.92
2017-11-27T20:14:35.189Z,45.92
2017-11-27T20:16:38.498Z,45.92
2017-11-27T20:18:41.914Z,45.92
2017-11-27T20:20:45.218Z,45.92
2017-11-27T20:22:48.538Z,45.92
2017-11-27T20:24:51.865Z,45.92
2017-11-27T20:26:55.367Z,45.93
2017-11-27T20:28:58.730Z,45.93
2017-11-27T20:31:02.154Z,45.93
2017-11-27T20:33:05.542Z,45.93
2017-11-27T20:35:08.894Z,45.93
2017-11-27T20:37:12.542Z,45.94
2017-11-27T20:39:15.843Z,45.94
2017-11-27T20:41:19.216Z,45.94
2017-11-27T20:43:22.664Z,45.94
2017-11-27T20:45:26.026Z,45.94
2017-11-27T20:47:29.390Z,45.95
2017-11-27T20:49:32.726Z,45.94
2017-11-27T20:51:36.202Z,45.94
2017-11-27T20:53:39.764Z,45.95
2017-11-27T20:55:43.233Z,45.94
2017-11-27T20:57:46.550Z,45.95
2017-11-27T20:59:49.875Z,45.95
2017-11-27T21:01:53.394Z,45.96
2017-11-27T21:03:56.787Z,45.97
2017-11-27T21:06:00.077Z,45.96
2017-11-27T21:08:03.470Z,45.98
2017-11-27T21:10:06.787Z,45.98
2017-11-27T21:12:10.071Z,45.98
2017-11-27T21:14:13.423Z,45.98
2017-11-27T21:16:16.846Z,45.98
2017-11-27T21:18:20.158Z,45.98
2017-11-27T21:20:23.510Z,45.98
2017-11-27T21:22:26.803Z,45.98
2017-11-27T21:24:30.105Z,45.98
2017-11-27T21:26:33.583Z,45.98
2017-11-27T21:28:36.886Z,46.02
2017-11-27T21:30:40.346Z,46.02
2017-11-27T21:32:43.707Z,46.02
2017-11-27T21:34:47.151Z,46.02
2017-11-27T21:36:50.590Z,46.02
2017-11-27T21:38:54.067Z,46.02
2017-11-27T21:40:57.380Z,46.02
2017-11-27T21:43:00.701Z,46.02
2017-11-27T21:45:04.117Z,46.02
2017-11-27T21:47:07.403Z,46.03
2017-11-27T21:49:10.739Z,46.02
2017-11-27T21:51:14.107Z,46.01
2017-11-27T21:53:17.476Z,46.02
2017-11-27T21:55:20.749Z,46.02
2017-11-27T21:57:24.099Z,46.02
2017-11-27T21:59:27.546Z,46.02
2017-11-27T22:01:30.850Z,46.03
2017-11-27T22:03:34.332Z,46.03
2017-11-27T22:05:37.690Z,46.05
2017-11-27T22:07:40.980Z,46.05
2017-11-27T22:09:44.436Z,46.04
2017-11-27T22:11:47.813Z,46.04
2017-11-27T22:13:51.186Z,46.04
2017-11-27T22:15:54.510Z,46.04
2017-11-27T22:17:57.918Z,46.05
2017-11-27T22:20:01.336Z,46.05
2017-11-27T22:22:04.759Z,46.04
2017-11-27T22:24:08.086Z,46.04
2017-11-27T22:26:11.399Z,46.04
2017-11-27T22:28:14.733Z,46.04
2017-11-27T22:30:18.047Z,46.04
2017-11-27T22:32:21.329Z,46.07
2017-11-27T22:34:24.827Z,46.05
2017-11-27T22:36:28.138Z,46.06
2017-11-27T22:38:31.508Z,46.06
2017-11-27T22:40:34.826Z,46.06
2017-11-27T22:42:38.196Z,46.08
2017-11-27T22:44:41.553Z,46.08
2017-11-27T22:46:44.985Z,46.08
2017-11-27T22:48:48.403Z,46.07
2017-11-27T22:50:51.742Z,46.07
2017-11-27T22:52:55.322Z,46.07
2017-11-27T22:54:58.745Z,46.07
2017-11-27T22:57:02.086Z,46.07
2017-11-27T22:59:05.435Z,46.06
2017-11-27T23:01:08.740Z,46.07
2017-11-27T23:03:12.177Z,46.08
2017-11-27T23:05:15.598Z,46.08
2017-11-27T23:07:18.925Z,46.08
2017-11-27T23:09:22.217Z,46.08
2017-11-27T23:11:25.612Z,46.08
2017-11-27T23:13:28.918Z,46.10
2017-11-27T23:15:32.324Z,46.09
2017-11-27T23:17:35.650Z,46.09
2017-11-27T23:19:38.958Z,46.09
2017-11-27T23:21:42.249Z,46.09
2017-11-27T23:23:45.602Z,46.10
2017-11-27T23:25:48.975Z,46.10
2017-11-27T23:27:52.322Z,46.10
2017-11-27T23:29:55.710Z,46.10
2017-11-27T23:31:59.130Z,46.10
2017-11-27T23:34:02.626Z,46.11
2017-11-27T23:36:06.036Z,46.11
2017-11-27T23:38:09.323Z,46.12
2017-11-27T23:40:12.617Z,46.12
2017-11-27T23:42:16.006Z,46.12
2017-11-27T23:44:19.309Z,46.12
2017-11-27T23:46:22.697Z,46.11
2017-11-27T23:48:26.169Z,46.12
2017-11-27T23:50:29.480Z,46.12
2017-11-27T23:52:32.845Z,46.12
2017-11-27T23:54:36.165Z,46.12
2017-11-27T23:56:39.491Z,46.13
2017-11-27T23:58:42.776Z,46.13
